Time;durP1;ratioP1;P1;durP2;ratioP2;P2;SDS_P1;SDS_P2;PMS_P1;PMS_P2;Temp;Humidity;BMP_temperature;BMP_pressure;BME280_temperature;BME280_humidity;BME280_pressure;Samples;Min_cycle;Max_cycle;Signal;HPM_P1;HPM_P2
2022/06/17 00:00:51;;;;;;;11.40;6.78;;;;;;;;;;5088977;28;20036;-78
2022/06/17 00:03:18;;;;;;;10.90;6.78;;;;;;;;;;5071123;28;20051;-75
2022/06/17 00:05:44;;;;;;;10.02;6.93;;;;;;;;;;5070906;28;20559;-74
2022/06/17 00:08:34;;;;;;;12.43;6.30;;;;;;;;;;5101781;28;20466;-70
2022/06/17 00:11:01;;;;;;;10.25;6.43;;;;;;;;;;5106821;28;20056;-77
2022/06/17 00:13:27;;;;;;;9.60;6.05;;;;;;;;;;5111439;28;20028;-69
2022/06/17 00:15:53;;;;;;;10.20;5.63;;;;;;;;;;5111337;28;20031;-76
2022/06/17 00:18:20;;;;;;;9.85;5.03;;;;;;;;;;5111823;28;20035;-72
2022/06/17 00:20:48;;;;;;;9.05;4.90;;;;;;;;;;5111691;28;20122;-74
2022/06/17 00:23:17;;;;;;;9.05;4.82;;;;;;;;;;5096331;28;20047;-74
2022/06/17 00:25:45;;;;;;;7.30;4.35;;;;;;;;;;5094987;28;20046;-75
2022/06/17 00:28:19;;;;;;;6.63;4.82;;;;;;;;;;5095121;28;20031;-74
2022/06/17 00:30:47;;;;;;;7.75;4.50;;;;;;;;;;5094954;28;20123;-74
2022/06/17 00:33:14;;;;;;;7.50;4.65;;;;;;;;;;5094960;28;20478;-71
2022/06/17 00:35:44;;;;;;;9.07;4.88;;;;;;;;;;5093925;28;20127;-74
2022/06/17 00:38:14;;;;;;;9.18;4.82;;;;;;;;;;5094895;28;20115;-69
2022/06/17 00:40:41;;;;;;;6.30;4.65;;;;;;;;;;5094937;28;20032;-69
2022/06/17 00:43:15;;;;;;;10.10;5.75;;;;;;;;;;5094828;28;20023;-72
2022/06/17 00:46:05;;;;;;;11.45;7.78;;;;;;;;;;5093530;28;20424;-73
2022/06/17 00:48:39;;;;;;;14.93;8.60;;;;;;;;;;5094653;28;20043;-70
2022/06/17 00:51:15;;;;;;;14.32;9.48;;;;;;;;;;5094581;28;20382;-77
2022/06/17 00:53:50;;;;;;;16.60;10.30;;;;;;;;;;5094827;28;20036;-77
2022/06/17 00:56:22;;;;;;;16.15;9.75;;;;;;;;;;5094503;28;20109;-75
2022/06/17 00:59:17;;;;;;;12.85;9.13;;;;;;;;;;5094395;28;20059;-77
2022/06/17 01:01:51;;;;;;;13.65;8.90;;;;;;;;;;5080122;28;20047;-69
2022/06/17 01:04:24;;;;;;;13.93;8.93;;;;;;;;;;5072397;28;20036;-72
2022/06/17 01:06:59;;;;;;;11.65;8.95;;;;;;;;;;5072542;28;20131;-69
2022/06/17 01:12:16;;;;;;;12.55;8.20;;;;;;;;;;5073683;28;20471;-68
2022/06/17 01:14:43;;;;;;;12.27;9.40;;;;;;;;;;5072453;28;20024;-71
2022/06/17 01:17:11;;;;;;;14.65;9.75;;;;;;;;;;5072270;28;20040;-72
2022/06/17 01:19:44;;;;;;;12.60;9.52;;;;;;;;;;5072525;28;20028;-71
2022/06/17 01:22:25;;;;;;;13.00;8.25;;;;;;;;;;5071380;28;20109;-69
2022/06/17 01:25:13;;;;;;;11.77;8.27;;;;;;;;;;5071991;28;20070;-69
2022/06/17 01:27:49;;;;;;;13.23;9.82;;;;;;;;;;5072466;28;20086;-76
2022/06/17 01:30:28;;;;;;;14.30;8.07;;;;;;;;;;5072186;28;20036;-74
2022/06/17 01:32:59;;;;;;;14.23;8.20;;;;;;;;;;5084202;28;20067;-72
2022/06/17 01:35:28;;;;;;;11.30;8.27;;;;;;;;;;5091183;28;20459;-73
2022/06/17 01:37:55;;;;;;;10.73;8.80;;;;;;;;;;5091629;28;20027;-75
2022/06/17 01:40:21;;;;;;;10.43;8.27;;;;;;;;;;5091129;28;20119;-72
2022/06/17 01:42:49;;;;;;;14.85;8.75;;;;;;;;;;5090508;28;20460;-72
2022/06/17 01:45:15;;;;;;;11.40;8.20;;;;;;;;;;5089412;28;20387;-73
2022/06/17 01:47:44;;;;;;;15.98;9.18;;;;;;;;;;5089387;28;20584;-72
2022/06/17 01:50:17;;;;;;;11.60;8.93;;;;;;;;;;5090177;28;20455;-70
2022/06/17 01:52:52;;;;;;;11.05;8.48;;;;;;;;;;5089265;28;20040;-74
2022/06/17 01:55:27;;;;;;;15.00;9.05;;;;;;;;;;5089500;28;20042;-72
2022/06/17 01:58:00;;;;;;;15.57;8.70;;;;;;;;;;5089431;28;20420;-70
2022/06/17 02:00:31;;;;;;;12.50;9.55;;;;;;;;;;5089037;28;20040;-68
2022/06/17 02:03:05;;;;;;;12.48;8.93;;;;;;;;;;5089050;28;20457;-70
2022/06/17 02:05:35;;;;;;;12.18;8.82;;;;;;;;;;5081899;28;20036;-66
2022/06/17 02:08:04;;;;;;;12.85;8.88;;;;;;;;;;5084310;28;20432;-69
2022/06/17 02:10:36;;;;;;;12.18;9.10;;;;;;;;;;5089083;28;20032;-66
2022/06/17 02:13:04;;;;;;;11.77;8.57;;;;;;;;;;5088582;28;20040;-67
2022/06/17 02:15:38;;;;;;;10.95;8.82;;;;;;;;;;5089360;28;20114;-68
2022/06/17 02:18:32;;;;;;;14.85;8.90;;;;;;;;;;5075975;28;20051;-67
2022/06/17 02:21:09;;;;;;;14.02;10.07;;;;;;;;;;5070943;28;20036;-70
2022/06/17 02:23:35;;;;;;;19.60;10.98;;;;;;;;;;5069788;28;20040;-67
2022/06/17 02:26:02;;;;;;;18.13;9.93;;;;;;;;;;5071046;28;20383;-67
2022/06/17 02:28:30;;;;;;;10.90;8.77;;;;;;;;;;5069649;28;20077;-69
2022/06/17 02:30:59;;;;;;;18.27;10.20;;;;;;;;;;5071094;28;20016;-66
2022/06/17 02:33:29;;;;;;;21.98;11.85;;;;;;;;;;5087170;28;20032;-67
2022/06/17 02:36:03;;;;;;;17.50;10.68;;;;;;;;;;5088151;28;20036;-68
2022/06/17 02:38:33;;;;;;;11.95;9.55;;;;;;;;;;5088710;28;20082;-66
2022/06/17 02:41:06;;;;;;;15.85;10.32;;;;;;;;;;5090437;28;20036;-69
2022/06/17 02:44:05;;;;;;;17.67;10.60;;;;;;;;;;5088214;28;20042;-68
2022/06/17 02:46:35;;;;;;;17.33;10.13;;;;;;;;;;5089470;28;20490;-69
2022/06/17 02:49:13;;;;;;;15.65;10.50;;;;;;;;;;5088494;28;20032;-68
2022/06/17 02:51:42;;;;;;;15.95;11.35;;;;;;;;;;5089169;28;20107;-70
2022/06/17 02:54:23;;;;;;;12.43;10.48;;;;;;;;;;5072483;28;20055;-72
2022/06/17 02:56:53;;;;;;;16.90;11.88;;;;;;;;;;5073540;28;20458;-72
2022/06/17 02:59:38;;;;;;;14.77;10.38;;;;;;;;;;5070775;28;20088;-72
2022/06/17 03:02:22;;;;;;;17.17;10.38;;;;;;;;;;5088105;28;20027;-73
2022/06/17 03:04:53;;;;;;;12.60;9.68;;;;;;;;;;5070813;28;20162;-71
2022/06/17 03:07:21;;;;;;;15.98;12.27;;;;;;;;;;5069222;28;20123;-74
2022/06/17 03:09:52;;;;;;;16.13;11.23;;;;;;;;;;5069211;28;20025;-67
2022/06/17 03:12:24;;;;;;;19.58;13.20;;;;;;;;;;5088345;28;20111;-68
2022/06/17 03:15:06;;;;;;;19.45;12.40;;;;;;;;;;5088283;28;20032;-68
2022/06/17 03:17:39;;;;;;;14.52;11.25;;;;;;;;;;5070878;28;20044;-71
2022/06/17 03:20:10;;;;;;;18.23;12.23;;;;;;;;;;5070365;28;20036;-68
2022/06/17 03:22:36;;;;;;;15.82;11.48;;;;;;;;;;5068813;28;20051;-69
2022/06/17 03:25:13;;;;;;;15.70;11.35;;;;;;;;;;5069019;28;20535;-67
2022/06/17 03:28:02;;;;;;;14.82;11.80;;;;;;;;;;5062249;28;20067;-71
2022/06/17 03:30:33;;;;;;;17.95;11.38;;;;;;;;;;5088708;28;20042;-68
2022/06/17 03:33:16;;;;;;;16.15;10.40;;;;;;;;;;5087592;28;20032;-69
2022/06/17 03:35:47;;;;;;;20.30;10.68;;;;;;;;;;5087802;28;20552;-67
2022/06/17 03:38:36;;;;;;;14.07;8.02;;;;;;;;;;5087645;28;20032;-71
2022/06/17 03:41:12;;;;;;;16.27;8.77;;;;;;;;;;5087597;28;20028;-67
2022/06/17 03:43:48;;;;;;;12.38;6.80;;;;;;;;;;5087231;28;20036;-66
2022/06/17 03:46:15;;;;;;;8.88;6.63;;;;;;;;;;5086403;28;20044;-70
2022/06/17 03:48:49;;;;;;;14.07;7.22;;;;;;;;;;5087371;28;20097;-67
2022/06/17 03:51:19;;;;;;;22.83;9.52;;;;;;;;;;5087290;28;20115;-67
2022/06/17 03:53:46;;;;;;;12.32;7.40;;;;;;;;;;5087296;28;20024;-67
2022/06/17 03:56:17;;;;;;;21.60;7.47;;;;;;;;;;5089547;28;20044;-67
2022/06/17 03:58:44;;;;;;;14.52;7.85;;;;;;;;;;5092714;28;20032;-67
2022/06/17 04:01:16;;;;;;;15.05;8.00;;;;;;;;;;5091243;28;20024;-68
2022/06/17 04:03:52;;;;;;;16.52;8.80;;;;;;;;;;5091685;28;20036;-67
2022/06/17 04:06:26;;;;;;;16.08;8.25;;;;;;;;;;5091087;28;20661;-67
2022/06/17 04:08:55;;;;;;;13.35;6.40;;;;;;;;;;5091033;28;20032;-67
2022/06/17 04:11:26;;;;;;;12.02;5.53;;;;;;;;;;5091765;28;20386;-66
2022/06/17 04:13:54;;;;;;;12.77;5.57;;;;;;;;;;5073970;28;20086;-68
2022/06/17 04:16:33;;;;;;;13.00;5.40;;;;;;;;;;5072206;28;20020;-73
2022/06/17 04:19:21;;;;;;;12.38;5.25;;;;;;;;;;5072419;28;20033;-67
2022/06/17 04:22:12;;;;;;;11.30;5.75;;;;;;;;;;5084022;28;20040;-70
2022/06/17 04:24:55;;;;;;;15.82;6.00;;;;;;;;;;5091563;28;20143;-67
2022/06/17 04:27:56;;;;;;;11.63;5.63;;;;;;;;;;5091521;28;20036;-71
2022/06/17 04:30:24;;;;;;;9.32;5.55;;;;;;;;;;5090622;28;20051;-72
2022/06/17 04:32:59;;;;;;;12.18;6.53;;;;;;;;;;5090701;28;20055;-71
2022/06/17 04:35:25;;;;;;;15.60;8.23;;;;;;;;;;5082242;28;20388;-71
2022/06/17 04:37:52;;;;;;;16.85;8.90;;;;;;;;;;5093712;28;20439;-72
2022/06/17 04:40:49;;;;;;;22.05;9.90;;;;;;;;;;5050711;28;20044;-76
2022/06/17 04:43:35;;;;;;;22.48;8.73;;;;;;;;;;5087969;28;20380;-71
2022/06/17 04:46:07;;;;;;;15.82;8.45;;;;;;;;;;5072431;28;20098;-77
2022/06/17 04:48:35;;;;;;;14.85;10.02;;;;;;;;;;5073365;28;20032;-75
2022/06/17 04:51:02;;;;;;;17.15;9.63;;;;;;;;;;5090196;28;20025;-75
2022/06/17 04:53:30;;;;;;;12.55;8.52;;;;;;;;;;5072896;28;20032;-78
2022/06/17 04:56:32;;;;;;;15.90;10.02;;;;;;;;;;5050909;28;20348;-80
2022/06/17 04:59:33;;;;;;;23.02;9.63;;;;;;;;;;5073317;28;20032;-80
2022/06/17 05:02:01;;;;;;;13.30;8.20;;;;;;;;;;5073402;28;20040;-78
2022/06/17 05:04:36;;;;;;;15.73;8.52;;;;;;;;;;5081431;28;20021;-72
2022/06/17 05:07:04;;;;;;;13.75;8.80;;;;;;;;;;5072392;28;20549;-72
2022/06/17 05:09:44;;;;;;;16.63;8.38;;;;;;;;;;5072667;28;20032;-72
2022/06/17 05:12:20;;;;;;;17.35;9.43;;;;;;;;;;5072648;28;20036;-72
2022/06/17 05:14:57;;;;;;;22.58;10.65;;;;;;;;;;5072287;28;20476;-71
2022/06/17 05:17:25;;;;;;;17.30;9.43;;;;;;;;;;5072499;28;20051;-71
2022/06/17 05:19:53;;;;;;;17.52;9.95;;;;;;;;;;5072627;28;20056;-72
2022/06/17 05:22:30;;;;;;;23.13;10.20;;;;;;;;;;5071765;28;20041;-72
2022/06/17 05:24:59;;;;;;;18.38;9.68;;;;;;;;;;5071397;28;20060;-72
2022/06/17 05:27:25;;;;;;;15.73;9.50;;;;;;;;;;5071757;28;20032;-73
2022/06/17 05:29:51;;;;;;;14.10;10.30;;;;;;;;;;5072842;28;20525;-71
2022/06/17 05:32:21;;;;;;;13.55;9.85;;;;;;;;;;5072985;28;20371;-71
2022/06/17 05:34:49;;;;;;;15.15;10.55;;;;;;;;;;5072893;28;20028;-71
2022/06/17 05:37:15;;;;;;;14.00;10.05;;;;;;;;;;5072835;28;20102;-72
2022/06/17 05:39:43;;;;;;;19.50;9.50;;;;;;;;;;5072954;28;20141;-73
2022/06/17 05:42:12;;;;;;;11.05;7.28;;;;;;;;;;5072853;28;20137;-72
2022/06/17 05:44:39;;;;;;;16.65;8.05;;;;;;;;;;5072618;28;20069;-74
2022/06/17 05:47:37;;;;;;;16.08;9.32;;;;;;;;;;5050628;28;20490;-72
2022/06/17 05:50:17;;;;;;;15.55;9.45;;;;;;;;;;5080706;28;20047;-73
2022/06/17 05:53:06;;;;;;;18.38;8.15;;;;;;;;;;5073548;28;20233;-72
2022/06/17 05:55:38;;;;;;;11.23;6.93;;;;;;;;;;5072526;28;20530;-73
2022/06/17 05:58:05;;;;;;;12.30;6.90;;;;;;;;;;5072169;28;20108;-73
2022/06/17 06:00:32;;;;;;;11.50;7.70;;;;;;;;;;5072695;28;20039;-72
2022/06/17 06:03:01;;;;;;;8.60;6.50;;;;;;;;;;5089059;28;20375;-72
2022/06/17 06:05:34;;;;;;;7.05;5.90;;;;;;;;;;5072120;28;20390;-71
2022/06/17 06:08:02;;;;;;;13.20;7.07;;;;;;;;;;5088743;28;20029;-72
2022/06/17 06:10:28;;;;;;;10.15;5.90;;;;;;;;;;5073259;28;20024;-72
2022/06/17 06:12:54;;;;;;;9.80;5.72;;;;;;;;;;5089220;28;20032;-73
2022/06/17 06:15:26;;;;;;;7.40;5.00;;;;;;;;;;5072119;28;20048;-71
2022/06/17 06:18:17;;;;;;;7.57;5.35;;;;;;;;;;5088996;28;20043;-71
2022/06/17 06:20:43;;;;;;;7.75;5.55;;;;;;;;;;5077933;28;20494;-72
2022/06/17 06:23:10;;;;;;;10.07;4.75;;;;;;;;;;5092041;28;20048;-78
2022/06/17 06:25:38;;;;;;;9.65;5.55;;;;;;;;;;5091895;28;20028;-75
2022/06/17 06:28:16;;;;;;;10.68;5.72;;;;;;;;;;5091807;28;20035;-77
2022/06/17 06:30:48;;;;;;;8.05;4.57;;;;;;;;;;5091570;28;20032;-75
2022/06/17 06:33:14;;;;;;;8.60;4.70;;;;;;;;;;5091538;28;20032;-75
2022/06/17 06:35:40;;;;;;;7.38;4.82;;;;;;;;;;5091207;28;20077;-76
2022/06/17 06:38:06;;;;;;;7.22;5.07;;;;;;;;;;5091468;28;20123;-74
2022/06/17 06:40:34;;;;;;;10.48;4.82;;;;;;;;;;5091831;28;20133;-73
2022/06/17 06:43:00;;;;;;;10.85;5.10;;;;;;;;;;5092513;28;20044;-73
2022/06/17 06:45:58;;;;;;;10.93;5.15;;;;;;;;;;5092476;28;20382;-73
2022/06/17 06:48:26;;;;;;;7.25;5.00;;;;;;;;;;5092697;28;20032;-73
2022/06/17 06:50:52;;;;;;;8.68;5.00;;;;;;;;;;5083685;28;20019;-73
2022/06/17 06:53:21;;;;;;;9.23;5.75;;;;;;;;;;5075555;28;20037;-73
2022/06/17 06:55:48;;;;;;;11.50;5.45;;;;;;;;;;5070819;28;20127;-73
2022/06/17 06:58:21;;;;;;;10.27;5.35;;;;;;;;;;5070598;28;20059;-72
2022/06/17 07:00:52;;;;;;;6.55;4.65;;;;;;;;;;5104250;28;20071;-72
2022/06/17 07:03:18;;;;;;;8.43;4.90;;;;;;;;;;5091030;28;20055;-71
2022/06/17 07:05:50;;;;;;;7.72;4.47;;;;;;;;;;5092119;28;20498;-73
2022/06/17 07:08:19;;;;;;;10.90;4.85;;;;;;;;;;5092126;28;20067;-72
2022/06/17 07:10:47;;;;;;;9.65;4.70;;;;;;;;;;5092389;28;20086;-72
2022/06/17 07:13:13;;;;;;;8.32;5.40;;;;;;;;;;5091894;28;20036;-73
2022/06/17 07:15:41;;;;;;;9.43;5.07;;;;;;;;;;5091973;28;20028;-71
2022/06/17 07:18:11;;;;;;;7.70;4.82;;;;;;;;;;5092349;28;20032;-71
2022/06/17 07:20:43;;;;;;;8.30;4.93;;;;;;;;;;5092210;28;20507;-72
2022/06/17 07:23:12;;;;;;;7.25;4.28;;;;;;;;;;5091892;28;20032;-72
2022/06/17 07:25:39;;;;;;;11.10;4.47;;;;;;;;;;5092273;28;20032;-71
2022/06/17 07:28:05;;;;;;;9.00;4.20;;;;;;;;;;5092113;28;20463;-73
2022/06/17 07:30:33;;;;;;;9.00;4.57;;;;;;;;;;5092880;28;20462;-73
2022/06/17 07:32:59;;;;;;;8.98;4.50;;;;;;;;;;5096161;28;20569;-72
2022/06/17 07:35:25;;;;;;;8.48;5.10;;;;;;;;;;5096129;28;20111;-72
2022/06/17 07:40:36;;;;;;;11.07;4.30;;;;;;;;;;5096100;28;20036;-72
2022/06/17 07:43:02;;;;;;;14.30;4.50;;;;;;;;;;5111566;28;20021;-72
2022/06/17 07:45:31;;;;;;;9.20;4.50;;;;;;;;;;5093643;28;20059;-73
2022/06/17 07:47:58;;;;;;;6.93;4.10;;;;;;;;;;5095396;28;20031;-75
2022/06/17 07:50:30;;;;;;;7.85;4.72;;;;;;;;;;5076460;28;20133;-74
2022/06/17 07:52:56;;;;;;;6.63;4.10;;;;;;;;;;5075537;28;20060;-73
2022/06/17 07:55:22;;;;;;;8.10;3.78;;;;;;;;;;5075067;28;20724;-75
2022/06/17 07:57:49;;;;;;;6.93;4.38;;;;;;;;;;5074981;28;20116;-72
2022/06/17 08:00:32;;;;;;;6.35;4.30;;;;;;;;;;5075142;28;20103;-72
2022/06/17 08:02:58;;;;;;;5.80;4.18;;;;;;;;;;5074968;28;20060;-76
2022/06/17 08:05:24;;;;;;;5.68;4.28;;;;;;;;;;5083116;28;20555;-73
2022/06/17 08:07:50;;;;;;;6.22;4.03;;;;;;;;;;5078405;28;20040;-73
2022/06/17 08:10:22;;;;;;;7.00;4.40;;;;;;;;;;5075422;28;20035;-78
2022/06/17 08:12:48;;;;;;;6.75;3.80;;;;;;;;;;5075298;28;20028;-76
2022/06/17 08:15:14;;;;;;;7.78;4.43;;;;;;;;;;5075304;28;20035;-77
2022/06/17 08:17:40;;;;;;;5.20;4.20;;;;;;;;;;5075356;28;20071;-76
2022/06/17 08:20:15;;;;;;;8.60;4.78;;;;;;;;;;5075329;28;20063;-75
2022/06/17 08:22:42;;;;;;;6.95;4.45;;;;;;;;;;5074783;28;20024;-74
2022/06/17 08:25:08;;;;;;;6.57;4.18;;;;;;;;;;5074227;28;20578;-75
2022/06/17 08:27:46;;;;;;;5.97;4.65;;;;;;;;;;5074829;28;20475;-73
2022/06/17 08:30:15;;;;;;;9.48;4.80;;;;;;;;;;5074892;28;20036;-74
2022/06/17 08:32:48;;;;;;;6.00;4.50;;;;;;;;;;5074647;28;20033;-75
2022/06/17 08:35:20;;;;;;;7.20;4.85;;;;;;;;;;5074918;28;20036;-73
2022/06/17 08:37:48;;;;;;;9.18;4.70;;;;;;;;;;5085104;28;20079;-80
2022/06/17 08:40:32;;;;;;;5.95;4.35;;;;;;;;;;5095162;28;20035;-72
2022/06/17 08:43:13;;;;;;;6.65;4.57;;;;;;;;;;5094155;28;20031;-71
2022/06/17 08:45:51;;;;;;;5.95;5.15;;;;;;;;;;5094910;28;20135;-72
2022/06/17 08:48:31;;;;;;;10.98;5.20;;;;;;;;;;5094919;28;20103;-71
2022/06/17 08:51:12;;;;;;;8.57;6.13;;;;;;;;;;5092984;28;20032;-71
2022/06/17 08:54:06;;;;;;;9.63;4.80;;;;;;;;;;5094588;28;20428;-71
2022/06/17 08:56:46;;;;;;;8.45;5.03;;;;;;;;;;5094649;28;20506;-72
2022/06/17 08:59:24;;;;;;;7.57;5.45;;;;;;;;;;5089507;28;20032;-71
2022/06/17 09:01:59;;;;;;;5.93;5.05;;;;;;;;;;5092611;28;20040;-71
2022/06/17 09:04:43;;;;;;;6.88;5.18;;;;;;;;;;5080549;28;20083;-72
2022/06/17 09:07:22;;;;;;;7.07;5.40;;;;;;;;;;5072784;28;20051;-72
2022/06/17 09:10:45;;;;;;;7.10;4.93;;;;;;;;;;5072880;28;20048;-72
2022/06/17 09:13:39;;;;;;;7.83;5.50;;;;;;;;;;5012547;28;20528;-71
2022/06/17 09:16:10;;;;;;;8.52;5.38;;;;;;;;;;5012292;28;20048;-71
2022/06/17 09:18:40;;;;;;;8.68;5.03;;;;;;;;;;5055583;28;20045;-72
2022/06/17 09:21:12;;;;;;;7.55;5.03;;;;;;;;;;5073938;28;20041;-71
2022/06/17 09:23:39;;;;;;;7.77;5.00;;;;;;;;;;5074332;28;20056;-71
2022/06/17 09:26:16;;;;;;;9.07;4.63;;;;;;;;;;5073328;28;20108;-71
2022/06/17 09:28:48;;;;;;;5.43;4.72;;;;;;;;;;5074222;28;20039;-72
2022/06/17 09:31:23;;;;;;;6.60;5.10;;;;;;;;;;5074380;28;20028;-71
2022/06/17 09:33:57;;;;;;;10.02;5.30;;;;;;;;;;5074147;28;20115;-71
2022/06/17 09:36:33;;;;;;;6.90;5.15;;;;;;;;;;5073952;28;20037;-72
2022/06/17 09:39:09;;;;;;;8.55;4.97;;;;;;;;;;5073991;28;20078;-71
2022/06/17 09:41:44;;;;;;;5.38;4.65;;;;;;;;;;5073914;28;20103;-71
2022/06/17 09:44:16;;;;;;;5.18;4.68;;;;;;;;;;5073835;28;20032;-72
2022/06/17 09:47:03;;;;;;;5.90;5.13;;;;;;;;;;5074130;28;20128;-71
2022/06/17 09:49:38;;;;;;;6.15;5.30;;;;;;;;;;5073866;28;20050;-71
2022/06/17 09:52:11;;;;;;;12.38;5.78;;;;;;;;;;5073503;28;20032;-72
2022/06/17 09:54:49;;;;;;;7.30;5.05;;;;;;;;;;5073830;28;20040;-72
2022/06/17 09:57:29;;;;;;;7.72;5.15;;;;;;;;;;5073909;28;20060;-78
2022/06/17 10:00:06;;;;;;;5.90;5.20;;;;;;;;;;5073719;28;20510;-73
2022/06/17 10:02:43;;;;;;;5.93;5.22;;;;;;;;;;5073745;28;20043;-76
2022/06/17 10:06:02;;;;;;;7.30;4.95;;;;;;;;;;5073692;28;20032;-73
2022/06/17 10:08:28;;;;;;;7.10;5.13;;;;;;;;;;5039523;28;20072;-75
2022/06/17 10:11:32;;;;;;;6.47;4.82;;;;;;;;;;5073288;28;20162;-73
2022/06/17 10:14:36;;;;;;;6.03;4.50;;;;;;;;;;5049727;28;20045;-76
2022/06/17 10:20:03;;;;;;;6.75;5.10;;;;;;;;;;5073315;28;20394;-74
2022/06/17 10:22:43;;;;;;;10.98;5.45;;;;;;;;;;5073252;28;20040;-76
2022/06/17 10:25:18;;;;;;;5.75;5.05;;;;;;;;;;5073348;28;20391;-75
2022/06/17 10:27:59;;;;;;;6.50;4.85;;;;;;;;;;5073076;28;20032;-72
2022/06/17 10:30:40;;;;;;;5.07;4.57;;;;;;;;;;5073113;28;20032;-72
2022/06/17 10:33:10;;;;;;;5.20;4.35;;;;;;;;;;5071628;28;20038;-73
2022/06/17 10:35:40;;;;;;;5.40;4.57;;;;;;;;;;5073069;28;20378;-73
2022/06/17 10:38:10;;;;;;;6.20;4.72;;;;;;;;;;5072770;28;20028;-73
2022/06/17 10:40:40;;;;;;;8.80;4.82;;;;;;;;;;5072781;28;20028;-73
2022/06/17 10:43:11;;;;;;;5.35;4.63;;;;;;;;;;5072546;28;20021;-73
2022/06/17 10:45:37;;;;;;;6.35;4.90;;;;;;;;;;5072495;28;20071;-74
2022/06/17 10:48:26;;;;;;;7.45;4.93;;;;;;;;;;5072669;28;20413;-75
2022/06/17 10:50:52;;;;;;;7.05;5.07;;;;;;;;;;5072046;28;20036;-77
2022/06/17 10:53:24;;;;;;;5.72;4.97;;;;;;;;;;5073243;28;20413;-74
2022/06/17 10:55:53;;;;;;;;;;;;;;;;;;5074199;28;20044;-74
2022/06/17 10:58:25;;;;;;;5.80;4.82;;;;;;;;;;5072801;28;19965;-74
2022/06/17 11:00:56;;;;;;;8.15;4.90;;;;;;;;;;5072515;28;20506;-75
2022/06/17 11:03:31;;;;;;;7.18;5.13;;;;;;;;;;5072387;28;20475;-74
2022/06/17 11:06:02;;;;;;;7.20;4.82;;;;;;;;;;5071611;28;20035;-74
2022/06/17 11:08:33;;;;;;;8.05;4.97;;;;;;;;;;5071286;28;20036;-74
2022/06/17 11:12:02;;;;;;;6.82;4.85;;;;;;;;;;5072526;28;20121;-73
2022/06/17 11:13:49;;;;;;;10.02;5.30;;;;;;;;;;5072344;28;20099;-73
2022/06/17 11:16:20;;;;;;;7.57;4.85;;;;;;;;;;5075300;28;20031;-72
2022/06/17 11:18:56;;;;;;;8.83;4.93;;;;;;;;;;5086265;28;20111;-76
2022/06/17 11:21:27;;;;;;;9.65;5.00;;;;;;;;;;5086943;28;20610;-76
2022/06/17 11:23:57;;;;;;;8.85;5.50;;;;;;;;;;5091717;28;20056;-72
2022/06/17 11:26:30;;;;;;;6.20;4.57;;;;;;;;;;5090217;28;20111;-75
2022/06/17 11:29:20;;;;;;;8.05;5.15;;;;;;;;;;5082960;28;20059;-76
2022/06/17 11:31:49;;;;;;;6.25;4.53;;;;;;;;;;5090435;28;20036;-73
2022/06/17 11:34:18;;;;;;;7.00;4.82;;;;;;;;;;5105542;28;20042;-73
2022/06/17 11:37:15;;;;;;;6.47;4.90;;;;;;;;;;5070256;28;20040;-74
2022/06/17 11:39:41;;;;;;;6.20;4.57;;;;;;;;;;5071685;28;20060;-72
2022/06/17 11:42:20;;;;;;;6.07;5.30;;;;;;;;;;5071413;28;20055;-77
2022/06/17 11:45:01;;;;;;;8.05;4.68;;;;;;;;;;5071608;28;20504;-79
2022/06/17 11:47:30;;;;;;;6.57;4.65;;;;;;;;;;5071481;28;20024;-78
2022/06/17 11:50:00;;;;;;;10.63;5.65;;;;;;;;;;5071663;28;20024;-76
2022/06/17 11:52:32;;;;;;;6.45;4.50;;;;;;;;;;5071538;28;20091;-75
2022/06/17 11:54:59;;;;;;;6.88;4.90;;;;;;;;;;5071791;28;20033;-73
2022/06/17 11:57:35;;;;;;;7.00;4.32;;;;;;;;;;5071841;28;20036;-79
2022/06/17 12:00:20;;;;;;;4.93;4.18;;;;;;;;;;5071853;28;20036;-74
2022/06/17 12:02:55;;;;;;;5.60;4.20;;;;;;;;;;5071379;28;20105;-75
2022/06/17 12:05:26;;;;;;;7.40;4.38;;;;;;;;;;5082629;28;20028;-73
2022/06/17 12:08:00;;;;;;;6.70;4.25;;;;;;;;;;5091891;28;20024;-78
2022/06/17 12:10:27;;;;;;;7.57;4.18;;;;;;;;;;5071443;28;20471;-74
2022/06/17 12:12:58;;;;;;;8.32;4.15;;;;;;;;;;5071451;28;20390;-76
2022/06/17 12:15:37;;;;;;;5.53;3.47;;;;;;;;;;5071917;28;20056;-75
2022/06/17 12:18:04;;;;;;;5.32;4.28;;;;;;;;;;5073058;28;20117;-73
2022/06/17 12:20:46;;;;;;;4.80;3.60;;;;;;;;;;5075296;28;20025;-74
2022/06/17 12:23:57;;;;;;;5.38;3.72;;;;;;;;;;5075180;28;20032;-72
2022/06/17 12:26:34;;;;;;;4.50;4.03;;;;;;;;;;5070289;28;20059;-76
2022/06/17 12:29:17;;;;;;;7.68;4.00;;;;;;;;;;5081909;28;20032;-76
2022/06/17 12:32:22;;;;;;;6.82;4.05;;;;;;;;;;5087270;28;20037;-74
2022/06/17 12:35:02;;;;;;;6.35;3.75;;;;;;;;;;5025222;28;20098;-75
2022/06/17 12:37:53;;;;;;;5.57;4.00;;;;;;;;;;5075366;28;20033;-79
2022/06/17 12:40:46;;;;;;;6.93;3.83;;;;;;;;;;5075128;28;20040;-76
2022/06/17 12:43:22;;;;;;;6.77;3.30;;;;;;;;;;5112140;28;20049;-72
2022/06/17 12:46:01;;;;;;;8.07;3.88;;;;;;;;;;5112901;28;20664;-75
2022/06/17 12:48:33;;;;;;;8.35;3.60;;;;;;;;;;5090318;28;20532;-74
2022/06/17 12:54:48;;;;;;;8.65;3.63;;;;;;;;;;5075048;28;20040;-71
2022/06/17 12:57:28;;;;;;;5.18;3.58;;;;;;;;;;5077780;28;20525;-77
2022/06/17 13:00:29;;;;;;;5.28;3.42;;;;;;;;;;5092298;28;20486;-74
2022/06/17 13:03:01;;;;;;;5.32;3.60;;;;;;;;;;5090927;28;20522;-78
2022/06/17 13:05:46;;;;;;;6.65;3.70;;;;;;;;;;5094994;28;20395;-75
2022/06/17 13:08:17;;;;;;;6.15;3.28;;;;;;;;;;5094440;28;20035;-71
2022/06/17 13:11:21;;;;;;;5.53;3.55;;;;;;;;;;5094512;28;20036;-69
2022/06/17 13:14:05;;;;;;;5.10;3.40;;;;;;;;;;5094175;28;20352;-72
2022/06/17 13:16:39;;;;;;;6.32;3.58;;;;;;;;;;5093690;28;20452;-71
2022/06/17 13:19:28;;;;;;;8.82;3.67;;;;;;;;;;5094760;28;20032;-70
2022/06/17 13:22:13;;;;;;;5.93;3.72;;;;;;;;;;5073259;28;20380;-72
2022/06/17 13:25:01;;;;;;;4.57;3.63;;;;;;;;;;5094878;28;20044;-72
2022/06/17 13:27:39;;;;;;;5.85;3.78;;;;;;;;;;5095026;28;20038;-78
2022/06/17 13:30:36;;;;;;;5.85;3.55;;;;;;;;;;5091219;28;20046;-74
2022/06/17 13:33:17;;;;;;;4.13;3.55;;;;;;;;;;5098551;28;20039;-74
2022/06/17 13:35:49;;;;;;;5.55;3.45;;;;;;;;;;5114918;28;20444;-76
2022/06/17 13:38:33;;;;;;;5.13;3.10;;;;;;;;;;5114790;28;20126;-77
2022/06/17 13:41:09;;;;;;;6.15;3.40;;;;;;;;;;5114430;28;20043;-78
2022/06/17 13:43:41;;;;;;;6.03;3.45;;;;;;;;;;5114342;28;20067;-76
2022/06/17 13:46:22;;;;;;;5.80;3.30;;;;;;;;;;5114535;28;20038;-76
2022/06/17 13:48:59;;;;;;;6.10;4.00;;;;;;;;;;5110253;28;20050;-76
2022/06/17 13:51:53;;;;;;;7.72;3.53;;;;;;;;;;5073721;28;20094;-77
2022/06/17 13:54:25;;;;;;;4.95;3.33;;;;;;;;;;5073634;28;20037;-74
2022/06/17 13:57:01;;;;;;;4.30;3.20;;;;;;;;;;5073439;28;20399;-75
2022/06/17 13:59:40;;;;;;;5.28;3.80;;;;;;;;;;5073568;28;20037;-77
2022/06/17 14:02:17;;;;;;;6.15;3.70;;;;;;;;;;5080968;28;20024;-75
2022/06/17 14:05:00;;;;;;;4.80;3.38;;;;;;;;;;5110298;28;20035;-75
2022/06/17 14:07:53;;;;;;;5.70;3.83;;;;;;;;;;5113554;28;20116;-76
2022/06/17 14:10:33;;;;;;;6.32;3.50;;;;;;;;;;5102660;28;20115;-75
2022/06/17 14:13:01;;;;;;;8.75;3.53;;;;;;;;;;5087470;28;20044;-73
2022/06/17 14:15:31;;;;;;;7.95;3.83;;;;;;;;;;5092639;28;20028;-72
2022/06/17 14:18:02;;;;;;;7.57;3.50;;;;;;;;;;5093319;28;20036;-71
2022/06/17 14:20:41;;;;;;;6.32;3.70;;;;;;;;;;5092928;28;20072;-74
2022/06/17 14:23:12;;;;;;;5.10;3.67;;;;;;;;;;5092609;28;20032;-74
2022/06/17 14:26:01;;;;;;;5.82;3.80;;;;;;;;;;5083487;28;20024;-72
2022/06/17 14:34:50;;;;;;;8.40;4.35;;;;;;;;;;4993422;28;20061;-73
2022/06/17 14:37:37;;;;;;;6.55;3.55;;;;;;;;;;5032965;28;20383;-71
2022/06/17 14:40:07;;;;;;;7.00;3.95;;;;;;;;;;5032278;28;20172;-71
2022/06/17 14:42:51;;;;;;;6.43;3.78;;;;;;;;;;5033150;28;20060;-70
2022/06/17 14:45:49;;;;;;;6.53;4.13;;;;;;;;;;5015273;28;20436;-72
2022/06/17 14:48:15;;;;;;;6.63;3.53;;;;;;;;;;4993244;28;20030;-70
2022/06/17 14:51:00;;;;;;;9.00;4.35;;;;;;;;;;4993505;28;20129;-71
2022/06/17 14:53:46;;;;;;;8.25;3.95;;;;;;;;;;4993412;28;20038;-73
2022/06/17 14:56:14;;;;;;;5.20;3.60;;;;;;;;;;4993221;28;20062;-74
2022/06/17 14:58:46;;;;;;;7.88;4.28;;;;;;;;;;4993165;28;20026;-74
2022/06/17 15:01:42;;;;;;;10.32;4.20;;;;;;;;;;4993279;28;20465;-73
2022/06/17 15:04:40;;;;;;;12.90;4.50;;;;;;;;;;4993426;28;20038;-73
2022/06/17 15:07:31;;;;;;;14.27;4.28;;;;;;;;;;4992890;28;20115;-75
2022/06/17 15:10:04;;;;;;;5.70;3.65;;;;;;;;;;4992970;28;20392;-75
2022/06/17 15:12:34;;;;;;;6.70;4.28;;;;;;;;;;4993014;28;20357;-74
2022/06/17 15:15:15;;;;;;;6.47;3.80;;;;;;;;;;4993023;28;20045;-72
2022/06/17 15:17:49;;;;;;;5.50;4.22;;;;;;;;;;4995329;28;20357;-70
2022/06/17 15:20:23;;;;;;;9.55;4.22;;;;;;;;;;5011368;28;20424;-74
2022/06/17 15:23:19;;;;;;;7.55;3.60;;;;;;;;;;5011183;28;20018;-72
2022/06/17 15:26:13;;;;;;;10.25;4.32;;;;;;;;;;5010393;28;20046;-71
2022/06/17 15:28:43;;;;;;;7.10;3.75;;;;;;;;;;5012816;28;20033;-71
2022/06/17 15:31:36;;;;;;;6.45;4.47;;;;;;;;;;5015748;28;20022;-70
2022/06/17 15:34:17;;;;;;;5.55;3.83;;;;;;;;;;5016758;28;20041;-70
2022/06/17 15:36:51;;;;;;;6.47;3.85;;;;;;;;;;4998227;28;20068;-70
2022/06/17 15:39:29;;;;;;;6.50;3.80;;;;;;;;;;5010445;28;20033;-73
2022/06/17 15:42:16;;;;;;;8.65;3.92;;;;;;;;;;5007687;28;20224;-71